Карточка аэропорта URSS

Внимание!
Информация на этой странице в стадии наполнения.
Если вы не увидели какой-то информации, или заметили неточность - пожалуйста сообщите нам!
Спасибо!
Команда RU-STAFF
Название аэропортаСочи
Название аэропорта (англ.)Sochi
Превышение89 ft. (27.1 m.)
Координаты43°26.634', 39°56.55'
Высота перехода13000 ft
Эшелон переходаFL140 (QNH >= 1013); FL150 (QNH 977-1012); FL160 (QNH < 977)
Коды ответчика1060-1077
Зона ОрВДРостов-на-Дону РПИ (URRV)
Данные METARURSS 071000Z 23003MPS 160V280 9999 FEW050 28/17 Q1009 R02/010070 R06/010070 NOSIG RMK R06/28004MPS QFE755
Проноз погоды (TAF)URSS 070756Z 0709/0809 26006G11MPS 9999 FEW040 BECMG 0717/0718 05003G08MPS NSC TEMPO 0718/0806 16005G10MPS SCT025 BECMG 0806/0807 18004G10MPS BKN020CB BKN100 TEMPO 0807/0809 VRB05G13MPS -TSRA BKN011 OVC020CB
NOTAMshow/hide NOTAM
AWOS   TABLE

Информация о ВПП

ВПП Длина ВПП (м.) Покрытие Курс ВПП Частота ILS
242890Цементобетон238 
202500Цементобетон202 
022500Цементобетон22110.5
062890Цементобетон58111.1

Диспетчерские позиции

Позывной Наименование органа УВД Частота
URSS_GNDСочи-Руление119.000
URSS_TWRСочи-Старт121.200
URSS_APPСочи-Подход124.600
URSS_R_APPСочи-Круг119.700
URSS_DELСочи-Деливери132.700
URSS_FM1119.000



Спутниковое изображение